sensor_id;sensor_type;location;lat;lon;timestamp;temperature;humidity
8408;DHT22;4241;48.452;9.216;2023-09-18T00:02:18;23.40;99.90
8408;DHT22;4241;48.452;9.216;2023-09-18T00:04:44;23.20;99.90
8408;DHT22;4241;48.452;9.216;2023-09-18T00:07:11;23.10;99.90
8408;DHT22;4241;48.452;9.216;2023-09-18T00:09:38;23.10;99.90
8408;DHT22;4241;48.452;9.216;2023-09-18T00:12:05;22.90;99.90
8408;DHT22;4241;48.452;9.216;2023-09-18T00:14:34;22.80;99.90
8408;DHT22;4241;48.452;9.216;2023-09-18T00:17:01;22.70;99.90
8408;DHT22;4241;48.452;9.216;2023-09-18T00:19:28;22.50;99.90
8408;DHT22;4241;48.452;9.216;2023-09-18T00:21:55;22.40;99.90
8408;DHT22;4241;48.452;9.216;2023-09-18T00:24:26;22.30;99.90
8408;DHT22;4241;48.452;9.216;2023-09-18T00:26:53;22.10;99.90
8408;DHT22;4241;48.452;9.216;2023-09-18T00:29:19;22.10;99.90
8408;DHT22;4241;48.452;9.216;2023-09-18T00:31:47;22.10;99.90
8408;DHT22;4241;48.452;9.216;2023-09-18T00:34:14;22.00;99.90
8408;DHT22;4241;48.452;9.216;2023-09-18T00:36:41;21.90;99.90
8408;DHT22;4241;48.452;9.216;2023-09-18T00:39:08;21.80;99.90
8408;DHT22;4241;48.452;9.216;2023-09-18T00:41:36;21.80;99.90
8408;DHT22;4241;48.452;9.216;2023-09-18T00:44:04;21.70;99.90
8408;DHT22;4241;48.452;9.216;2023-09-18T00:46:32;21.70;99.90
8408;DHT22;4241;48.452;9.216;2023-09-18T00:49:00;21.60;99.90
8408;DHT22;4241;48.452;9.216;2023-09-18T00:51:28;21.60;99.90
8408;DHT22;4241;48.452;9.216;2023-09-18T00:53:55;21.50;99.90
8408;DHT22;4241;48.452;9.216;2023-09-18T00:56:22;21.50;99.90
8408;DHT22;4241;48.452;9.216;2023-09-18T00:58:49;21.50;99.90
8408;DHT22;4241;48.452;9.216;2023-09-18T01:01:18;21.50;99.90
8408;DHT22;4241;48.452;9.216;2023-09-18T01:03:48;21.40;99.90
8408;DHT22;4241;48.452;9.216;2023-09-18T01:06:17;21.70;99.90
8408;DHT22;4241;48.452;9.216;2023-09-18T01:08:45;21.60;99.90
8408;DHT22;4241;48.452;9.216;2023-09-18T01:11:17;21.60;99.90
8408;DHT22;4241;48.452;9.216;2023-09-18T01:13:50;21.80;99.90
8408;DHT22;4241;48.452;9.216;2023-09-18T01:16:22;21.80;99.90
8408;DHT22;4241;48.452;9.216;2023-09-18T01:18:51;21.70;99.90
8408;DHT22;4241;48.452;9.216;2023-09-18T01:21:20;21.80;99.90
8408;DHT22;4241;48.452;9.216;2023-09-18T01:23:48;21.60;99.90
8408;DHT22;4241;48.452;9.216;2023-09-18T01:26:17;21.70;99.90
8408;DHT22;4241;48.452;9.216;2023-09-18T01:28:43;21.60;99.90
8408;DHT22;4241;48.452;9.216;2023-09-18T01:31:10;21.50;99.90
8408;DHT22;4241;48.452;9.216;2023-09-18T01:33:38;21.50;99.90
8408;DHT22;4241;48.452;9.216;2023-09-18T01:36:06;21.50;99.90
8408;DHT22;4241;48.452;9.216;2023-09-18T01:38:34;21.60;99.90
8408;DHT22;4241;48.452;9.216;2023-09-18T01:41:03;21.50;99.90
8408;DHT22;4241;48.452;9.216;2023-09-18T01:43:30;21.50;99.90
8408;DHT22;4241;48.452;9.216;2023-09-18T01:45:57;21.50;99.90
8408;DHT22;4241;48.452;9.216;2023-09-18T01:48:24;21.50;99.90
8408;DHT22;4241;48.452;9.216;2023-09-18T01:50:51;21.50;99.90
8408;DHT22;4241;48.452;9.216;2023-09-18T01:53:18;21.40;99.90
8408;DHT22;4241;48.452;9.216;2023-09-18T01:55:44;21.50;99.90
8408;DHT22;4241;48.452;9.216;2023-09-18T01:58:14;21.40;99.90
8408;DHT22;4241;48.452;9.216;2023-09-18T02:00:41;21.40;99.90
8408;DHT22;4241;48.452;9.216;2023-09-18T02:03:08;21.10;99.90
8408;DHT22;4241;48.452;9.216;2023-09-18T02:05:35;21.10;99.90
8408;DHT22;4241;48.452;9.216;2023-09-18T02:08:02;21.10;99.90
8408;DHT22;4241;48.452;9.216;2023-09-18T02:10:29;21.00;99.90
8408;DHT22;4241;48.452;9.216;2023-09-18T02:12:56;21.00;99.90
8408;DHT22;4241;48.452;9.216;2023-09-18T02:15:24;21.00;99.90
8408;DHT22;4241;48.452;9.216;2023-09-18T02:17:52;21.00;99.90
8408;DHT22;4241;48.452;9.216;2023-09-18T02:20:19;20.90;99.90
8408;DHT22;4241;48.452;9.216;2023-09-18T02:22:46;20.90;99.90
8408;DHT22;4241;48.452;9.216;2023-09-18T02:25:13;20.90;99.90
8408;DHT22;4241;48.452;9.216;2023-09-18T02:27:40;20.80;99.90
8408;DHT22;4241;48.452;9.216;2023-09-18T02:30:07;20.80;99.90
8408;DHT22;4241;48.452;9.216;2023-09-18T02:32:36;20.80;99.90
8408;DHT22;4241;48.452;9.216;2023-09-18T02:35:04;20.80;99.90
8408;DHT22;4241;48.452;9.216;2023-09-18T02:37:32;20.80;99.90
8408;DHT22;4241;48.452;9.216;2023-09-18T02:39:59;20.70;99.90
8408;DHT22;4241;48.452;9.216;2023-09-18T02:42:27;20.70;99.90
8408;DHT22;4241;48.452;9.216;2023-09-18T02:44:54;20.70;99.90
8408;DHT22;4241;48.452;9.216;2023-09-18T02:47:20;20.70;99.90
8408;DHT22;4241;48.452;9.216;2023-09-18T02:49:49;20.60;99.90
8408;DHT22;4241;48.452;9.216;2023-09-18T02:52:15;20.50;99.90
8408;DHT22;4241;48.452;9.216;2023-09-18T02:54:42;20.50;99.90
8408;DHT22;4241;48.452;9.216;2023-09-18T02:57:09;20.30;99.90
8408;DHT22;4241;48.452;9.216;2023-09-18T02:59:36;20.30;99.90
8408;DHT22;4241;48.452;9.216;2023-09-18T03:02:03;20.30;99.90
8408;DHT22;4241;48.452;9.216;2023-09-18T03:04:30;20.30;99.90
8408;DHT22;4241;48.452;9.216;2023-09-18T03:06:58;20.10;99.90
8408;DHT22;4241;48.452;9.216;2023-09-18T03:09:25;20.10;99.90
8408;DHT22;4241;48.452;9.216;2023-09-18T03:11:51;19.90;99.90
8408;DHT22;4241;48.452;9.216;2023-09-18T03:14:18;19.90;99.90
8408;DHT22;4241;48.452;9.216;2023-09-18T03:16:45;19.80;99.90
8408;DHT22;4241;48.452;9.216;2023-09-18T03:19:12;19.80;99.90
8408;DHT22;4241;48.452;9.216;2023-09-18T03:21:39;19.80;99.90
8408;DHT22;4241;48.452;9.216;2023-09-18T03:24:07;19.90;99.90
8408;DHT22;4241;48.452;9.216;2023-09-18T03:26:34;19.90;99.90
8408;DHT22;4241;48.452;9.216;2023-09-18T03:29:01;19.90;99.90
8408;DHT22;4241;48.452;9.216;2023-09-18T03:31:28;19.90;99.90
8408;DHT22;4241;48.452;9.216;2023-09-18T03:33:55;19.90;99.90
8408;DHT22;4241;48.452;9.216;2023-09-18T03:36:22;19.90;99.90
8408;DHT22;4241;48.452;9.216;2023-09-18T03:38:50;19.90;99.90
8408;DHT22;4241;48.452;9.216;2023-09-18T03:41:18;19.90;99.90
8408;DHT22;4241;48.452;9.216;2023-09-18T03:43:45;19.90;99.90
8408;DHT22;4241;48.452;9.216;2023-09-18T03:46:11;20.00;99.90
8408;DHT22;4241;48.452;9.216;2023-09-18T03:48:38;20.00;99.90
8408;DHT22;4241;48.452;9.216;2023-09-18T03:51:05;20.00;99.90
8408;DHT22;4241;48.452;9.216;2023-09-18T03:53:33;20.10;99.90
8408;DHT22;4241;48.452;9.216;2023-09-18T03:56:00;20.20;99.90
8408;DHT22;4241;48.452;9.216;2023-09-18T03:58:29;20.10;99.90
8408;DHT22;4241;48.452;9.216;2023-09-18T04:00:56;20.30;99.90
8408;DHT22;4241;48.452;9.216;2023-09-18T04:03:28;20.60;99.90
8408;DHT22;4241;48.452;9.216;2023-09-18T04:05:55;20.80;99.90
8408;DHT22;4241;48.452;9.216;2023-09-18T04:08:22;20.90;99.90
8408;DHT22;4241;48.452;9.216;2023-09-18T04:10:48;21.00;99.90
8408;DHT22;4241;48.452;9.216;2023-09-18T04:13:15;21.10;99.90
8408;DHT22;4241;48.452;9.216;2023-09-18T04:15:43;21.00;99.90
8408;DHT22;4241;48.452;9.216;2023-09-18T04:18:11;21.00;99.90
8408;DHT22;4241;48.452;9.216;2023-09-18T04:20:38;20.90;99.90
8408;DHT22;4241;48.452;9.216;2023-09-18T04:23:18;20.90;99.90
8408;DHT22;4241;48.452;9.216;2023-09-18T04:25:45;20.90;99.90
8408;DHT22;4241;48.452;9.216;2023-09-18T04:28:12;20.70;99.90
8408;DHT22;4241;48.452;9.216;2023-09-18T04:30:39;20.70;99.90
8408;DHT22;4241;48.452;9.216;2023-09-18T04:33:08;20.70;99.90
8408;DHT22;4241;48.452;9.216;2023-09-18T04:35:38;20.80;99.90
8408;DHT22;4241;48.452;9.216;2023-09-18T04:38:06;20.70;99.90
8408;DHT22;4241;48.452;9.216;2023-09-18T04:40:34;20.60;99.90
8408;DHT22;4241;48.452;9.216;2023-09-18T04:43:01;20.60;99.90
8408;DHT22;4241;48.452;9.216;2023-09-18T04:45:29;20.50;99.90
8408;DHT22;4241;48.452;9.216;2023-09-18T04:47:56;20.30;99.90
8408;DHT22;4241;48.452;9.216;2023-09-18T04:50:24;20.50;99.90
8408;DHT22;4241;48.452;9.216;2023-09-18T04:52:52;20.50;99.90
8408;DHT22;4241;48.452;9.216;2023-09-18T04:55:20;20.40;99.90
8408;DHT22;4241;48.452;9.216;2023-09-18T04:57:47;20.40;99.90
8408;DHT22;4241;48.452;9.216;2023-09-18T05:00:14;20.40;99.90
8408;DHT22;4241;48.452;9.216;2023-09-18T05:02:42;20.30;99.90
8408;DHT22;4241;48.452;9.216;2023-09-18T05:05:09;20.30;99.90
8408;DHT22;4241;48.452;9.216;2023-09-18T05:07:37;20.40;99.90
8408;DHT22;4241;48.452;9.216;2023-09-18T05:10:04;20.30;99.90
8408;DHT22;4241;48.452;9.216;2023-09-18T05:12:31;20.30;99.90
8408;DHT22;4241;48.452;9.216;2023-09-18T05:14:58;20.40;99.90
8408;DHT22;4241;48.452;9.216;2023-09-18T05:17:40;20.40;99.90
8408;DHT22;4241;48.452;9.216;2023-09-18T05:20:09;20.40;99.90
8408;DHT22;4241;48.452;9.216;2023-09-18T05:22:38;20.30;99.90
8408;DHT22;4241;48.452;9.216;2023-09-18T05:25:05;20.40;99.90
8408;DHT22;4241;48.452;9.216;2023-09-18T05:27:33;20.30;99.90
8408;DHT22;4241;48.452;9.216;2023-09-18T05:30:00;20.30;99.90
8408;DHT22;4241;48.452;9.216;2023-09-18T05:32:27;20.40;99.90
8408;DHT22;4241;48.452;9.216;2023-09-18T05:34:53;20.40;99.90
8408;DHT22;4241;48.452;9.216;2023-09-18T05:37:20;20.40;99.90
8408;DHT22;4241;48.452;9.216;2023-09-18T05:39:48;20.40;99.90
8408;DHT22;4241;48.452;9.216;2023-09-18T05:42:15;20.40;99.90
8408;DHT22;4241;48.452;9.216;2023-09-18T05:44:42;20.40;99.90
8408;DHT22;4241;48.452;9.216;2023-09-18T05:47:09;20.40;99.90
8408;DHT22;4241;48.452;9.216;2023-09-18T05:49:36;20.40;99.90
8408;DHT22;4241;48.452;9.216;2023-09-18T05:52:03;20.50;99.90
8408;DHT22;4241;48.452;9.216;2023-09-18T05:54:30;20.50;99.90
8408;DHT22;4241;48.452;9.216;2023-09-18T05:56:58;20.40;99.90
8408;DHT22;4241;48.452;9.216;2023-09-18T05:59:25;20.50;99.90
8408;DHT22;4241;48.452;9.216;2023-09-18T06:01:51;20.60;99.90
8408;DHT22;4241;48.452;9.216;2023-09-18T06:04:19;20.60;99.90
8408;DHT22;4241;48.452;9.216;2023-09-18T06:06:47;20.60;99.90
8408;DHT22;4241;48.452;9.216;2023-09-18T06:09:13;20.60;99.90
8408;DHT22;4241;48.452;9.216;2023-09-18T06:11:47;20.70;99.90
8408;DHT22;4241;48.452;9.216;2023-09-18T06:14:16;20.70;99.90
8408;DHT22;4241;48.452;9.216;2023-09-18T06:16:43;20.60;99.90
8408;DHT22;4241;48.452;9.216;2023-09-18T06:19:09;20.70;99.90
8408;DHT22;4241;48.452;9.216;2023-09-18T06:21:36;21.80;99.90
8408;DHT22;4241;48.452;9.216;2023-09-18T06:24:04;20.80;99.90
8408;DHT22;4241;48.452;9.216;2023-09-18T06:26:31;20.80;99.90
8408;DHT22;4241;48.452;9.216;2023-09-18T06:28:58;20.70;99.90
8408;DHT22;4241;48.452;9.216;2023-09-18T06:31:26;20.80;99.90
8408;DHT22;4241;48.452;9.216;2023-09-18T06:33:53;20.80;99.90
8408;DHT22;4241;48.452;9.216;2023-09-18T06:36:19;20.80;99.90
8408;DHT22;4241;48.452;9.216;2023-09-18T06:38:46;20.80;99.90
8408;DHT22;4241;48.452;9.216;2023-09-18T06:41:13;20.80;99.90
8408;DHT22;4241;48.452;9.216;2023-09-18T06:43:40;20.80;99.90
8408;DHT22;4241;48.452;9.216;2023-09-18T06:46:07;20.80;99.90
8408;DHT22;4241;48.452;9.216;2023-09-18T06:48:35;20.80;99.90
8408;DHT22;4241;48.452;9.216;2023-09-18T06:53:29;20.80;99.90
8408;DHT22;4241;48.452;9.216;2023-09-18T06:55:56;20.90;99.90
8408;DHT22;4241;48.452;9.216;2023-09-18T06:58:23;21.10;99.90
8408;DHT22;4241;48.452;9.216;2023-09-18T07:00:50;21.00;99.90
8408;DHT22;4241;48.452;9.216;2023-09-18T07:03:16;21.00;99.90
8408;DHT22;4241;48.452;9.216;2023-09-18T07:05:45;21.20;99.90
8408;DHT22;4241;48.452;9.216;2023-09-18T07:08:12;21.30;99.90
8408;DHT22;4241;48.452;9.216;2023-09-18T07:10:41;21.30;99.90
8408;DHT22;4241;48.452;9.216;2023-09-18T07:13:08;21.30;99.90
8408;DHT22;4241;48.452;9.216;2023-09-18T07:15:35;21.40;99.90
8408;DHT22;4241;48.452;9.216;2023-09-18T07:18:02;21.30;99.90
8408;DHT22;4241;48.452;9.216;2023-09-18T07:20:29;21.30;99.90
8408;DHT22;4241;48.452;9.216;2023-09-18T07:22:57;21.40;99.90
8408;DHT22;4241;48.452;9.216;2023-09-18T07:25:24;21.30;99.90
8408;DHT22;4241;48.452;9.216;2023-09-18T07:27:51;21.40;99.90
8408;DHT22;4241;48.452;9.216;2023-09-18T07:30:17;21.30;99.90
8408;DHT22;4241;48.452;9.216;2023-09-18T07:32:46;21.30;99.90
8408;DHT22;4241;48.452;9.216;2023-09-18T07:35:13;21.30;99.90
8408;DHT22;4241;48.452;9.216;2023-09-18T07:37:40;21.30;99.90
8408;DHT22;4241;48.452;9.216;2023-09-18T07:40:11;21.30;99.90
8408;DHT22;4241;48.452;9.216;2023-09-18T07:42:38;21.30;99.90
8408;DHT22;4241;48.452;9.216;2023-09-18T07:45:06;21.30;99.90
8408;DHT22;4241;48.452;9.216;2023-09-18T07:47:33;21.20;99.90
8408;DHT22;4241;48.452;9.216;2023-09-18T07:50:00;21.30;99.90
8408;DHT22;4241;48.452;9.216;2023-09-18T07:52:26;21.30;99.90
8408;DHT22;4241;48.452;9.216;2023-09-18T07:54:53;21.30;99.90
8408;DHT22;4241;48.452;9.216;2023-09-18T07:57:21;21.20;99.90
8408;DHT22;4241;48.452;9.216;2023-09-18T07:59:49;21.30;99.90
8408;DHT22;4241;48.452;9.216;2023-09-18T08:02:16;21.20;99.90
8408;DHT22;4241;48.452;9.216;2023-09-18T08:04:43;21.40;99.90
8408;DHT22;4241;48.452;9.216;2023-09-18T08:07:10;21.20;99.90
8408;DHT22;4241;48.452;9.216;2023-09-18T08:09:37;21.30;99.90
8408;DHT22;4241;48.452;9.216;2023-09-18T08:12:05;21.40;99.90
8408;DHT22;4241;48.452;9.216;2023-09-18T08:14:34;21.30;99.90
8408;DHT22;4241;48.452;9.216;2023-09-18T08:17:02;21.30;99.90
8408;DHT22;4241;48.452;9.216;2023-09-18T08:19:30;21.00;99.90
8408;DHT22;4241;48.452;9.216;2023-09-18T08:21:58;21.10;99.90
8408;DHT22;4241;48.452;9.216;2023-09-18T08:24:26;21.00;99.90
8408;DHT22;4241;48.452;9.216;2023-09-18T08:26:52;21.00;99.90
8408;DHT22;4241;48.452;9.216;2023-09-18T08:29:22;20.70;99.90
8408;DHT22;4241;48.452;9.216;2023-09-18T08:31:50;20.70;99.90
8408;DHT22;4241;48.452;9.216;2023-09-18T08:34:17;20.70;99.90
8408;DHT22;4241;48.452;9.216;2023-09-18T08:36:44;20.50;99.90
8408;DHT22;4241;48.452;9.216;2023-09-18T08:39:10;20.40;99.90
8408;DHT22;4241;48.452;9.216;2023-09-18T08:41:42;20.30;99.90
8408;DHT22;4241;48.452;9.216;2023-09-18T08:44:09;20.20;99.90
8408;DHT22;4241;48.452;9.216;2023-09-18T08:46:37;20.10;99.90
8408;DHT22;4241;48.452;9.216;2023-09-18T08:49:07;20.10;99.90
8408;DHT22;4241;48.452;9.216;2023-09-18T08:51:35;20.10;99.90
8408;DHT22;4241;48.452;9.216;2023-09-18T08:54:04;20.00;99.90
8408;DHT22;4241;48.452;9.216;2023-09-18T08:56:32;19.90;99.90
8408;DHT22;4241;48.452;9.216;2023-09-18T08:58:59;19.90;99.90
8408;DHT22;4241;48.452;9.216;2023-09-18T09:01:26;20.10;99.90
8408;DHT22;4241;48.452;9.216;2023-09-18T09:03:54;20.00;99.90
8408;DHT22;4241;48.452;9.216;2023-09-18T09:06:22;20.10;99.90
8408;DHT22;4241;48.452;9.216;2023-09-18T09:08:50;20.20;99.90
8408;DHT22;4241;48.452;9.216;2023-09-18T09:11:17;20.10;99.90
8408;DHT22;4241;48.452;9.216;2023-09-18T09:13:45;20.10;99.90
8408;DHT22;4241;48.452;9.216;2023-09-18T09:16:12;20.10;99.90
8408;DHT22;4241;48.452;9.216;2023-09-18T09:18:47;19.90;99.90
8408;DHT22;4241;48.452;9.216;2023-09-18T09:21:15;20.00;99.90
8408;DHT22;4241;48.452;9.216;2023-09-18T09:23:47;20.10;99.90
8408;DHT22;4241;48.452;9.216;2023-09-18T09:26:18;20.00;99.90
8408;DHT22;4241;48.452;9.216;2023-09-18T09:28:46;19.90;99.90
8408;DHT22;4241;48.452;9.216;2023-09-18T09:31:23;20.00;99.90
8408;DHT22;4241;48.452;9.216;2023-09-18T09:33:53;19.90;99.90
8408;DHT22;4241;48.452;9.216;2023-09-18T09:36:21;20.00;99.90
8408;DHT22;4241;48.452;9.216;2023-09-18T09:38:57;20.00;99.90
8408;DHT22;4241;48.452;9.216;2023-09-18T09:41:24;20.00;99.90
8408;DHT22;4241;48.452;9.216;2023-09-18T09:43:53;19.80;99.90
8408;DHT22;4241;48.452;9.216;2023-09-18T09:46:21;19.90;99.90
8408;DHT22;4241;48.452;9.216;2023-09-18T09:49:01;19.80;99.90
8408;DHT22;4241;48.452;9.216;2023-09-18T09:51:28;19.70;99.90
8408;DHT22;4241;48.452;9.216;2023-09-18T09:53:57;19.70;99.90
8408;DHT22;4241;48.452;9.216;2023-09-18T09:56:43;19.70;99.90
8408;DHT22;4241;48.452;9.216;2023-09-18T09:59:11;19.80;99.90
8408;DHT22;4241;48.452;9.216;2023-09-18T10:01:39;19.80;99.90
8408;DHT22;4241;48.452;9.216;2023-09-18T10:04:10;19.80;99.90
8408;DHT22;4241;48.452;9.216;2023-09-18T10:06:41;19.80;99.90
8408;DHT22;4241;48.452;9.216;2023-09-18T10:09:12;19.90;99.90
8408;DHT22;4241;48.452;9.216;2023-09-18T10:11:44;19.90;99.90
8408;DHT22;4241;48.452;9.216;2023-09-18T10:14:16;19.90;99.90
8408;DHT22;4241;48.452;9.216;2023-09-18T10:16:53;19.80;99.90
8408;DHT22;4241;48.452;9.216;2023-09-18T10:19:28;19.80;99.90
8408;DHT22;4241;48.452;9.216;2023-09-18T10:22:06;19.80;99.90
8408;DHT22;4241;48.452;9.216;2023-09-18T10:24:39;19.80;99.90
8408;DHT22;4241;48.452;9.216;2023-09-18T10:27:06;19.70;99.90
8408;DHT22;4241;48.452;9.216;2023-09-18T10:29:35;19.70;99.90
8408;DHT22;4241;48.452;9.216;2023-09-18T10:32:03;19.40;99.90
8408;DHT22;4241;48.452;9.216;2023-09-18T10:34:30;19.50;99.90
8408;DHT22;4241;48.452;9.216;2023-09-18T10:37:00;19.60;99.90
8408;DHT22;4241;48.452;9.216;2023-09-18T10:39:29;19.50;99.90
8408;DHT22;4241;48.452;9.216;2023-09-18T10:42:01;19.40;99.90
8408;DHT22;4241;48.452;9.216;2023-09-18T10:44:29;19.30;99.90
8408;DHT22;4241;48.452;9.216;2023-09-18T10:46:57;19.40;99.90
8408;DHT22;4241;48.452;9.216;2023-09-18T10:49:25;19.40;99.90
8408;DHT22;4241;48.452;9.216;2023-09-18T10:51:54;19.40;99.90
8408;DHT22;4241;48.452;9.216;2023-09-18T10:54:23;19.40;99.90
8408;DHT22;4241;48.452;9.216;2023-09-18T10:56:50;19.30;99.90
8408;DHT22;4241;48.452;9.216;2023-09-18T10:59:20;19.30;99.90
8408;DHT22;4241;48.452;9.216;2023-09-18T11:01:47;19.30;99.90
8408;DHT22;4241;48.452;9.216;2023-09-18T11:04:18;19.10;99.90
8408;DHT22;4241;48.452;9.216;2023-09-18T11:07:04;19.20;99.90
8408;DHT22;4241;48.452;9.216;2023-09-18T11:09:42;19.20;99.90
8408;DHT22;4241;48.452;9.216;2023-09-18T11:12:09;19.20;99.90
8408;DHT22;4241;48.452;9.216;2023-09-18T11:14:45;19.30;99.90
8408;DHT22;4241;48.452;9.216;2023-09-18T11:17:34;19.30;99.90
8408;DHT22;4241;48.452;9.216;2023-09-18T11:20:06;19.20;99.90
8408;DHT22;4241;48.452;9.216;2023-09-18T11:22:35;19.20;99.90
8408;DHT22;4241;48.452;9.216;2023-09-18T11:25:30;19.20;99.90
8408;DHT22;4241;48.452;9.216;2023-09-18T11:28:01;19.20;99.90
8408;DHT22;4241;48.452;9.216;2023-09-18T11:30:30;19.20;99.90
8408;DHT22;4241;48.452;9.216;2023-09-18T11:32:58;19.20;99.90
8408;DHT22;4241;48.452;9.216;2023-09-18T11:35:25;19.30;99.90
8408;DHT22;4241;48.452;9.216;2023-09-18T11:38:03;19.30;99.90
8408;DHT22;4241;48.452;9.216;2023-09-18T11:40:33;19.20;99.90
8408;DHT22;4241;48.452;9.216;2023-09-18T11:43:26;19.10;99.90
8408;DHT22;4241;48.452;9.216;2023-09-18T11:45:57;19.00;99.90
8408;DHT22;4241;48.452;9.216;2023-09-18T11:48:25;19.00;99.90
8408;DHT22;4241;48.452;9.216;2023-09-18T11:50:56;19.10;99.90
8408;DHT22;4241;48.452;9.216;2023-09-18T11:53:24;19.00;99.90
8408;DHT22;4241;48.452;9.216;2023-09-18T11:58:18;19.00;99.90
8408;DHT22;4241;48.452;9.216;2023-09-18T12:00:49;19.00;99.90
8408;DHT22;4241;48.452;9.216;2023-09-18T12:03:19;19.20;99.90
8408;DHT22;4241;48.452;9.216;2023-09-18T12:05:52;19.10;99.90
8408;DHT22;4241;48.452;9.216;2023-09-18T12:08:21;19.20;99.90
8408;DHT22;4241;48.452;9.216;2023-09-18T12:10:51;19.00;99.90
8408;DHT22;4241;48.452;9.216;2023-09-18T12:13:18;19.00;99.90
8408;DHT22;4241;48.452;9.216;2023-09-18T12:15:44;19.00;99.90
8408;DHT22;4241;48.452;9.216;2023-09-18T12:18:11;19.10;99.90
8408;DHT22;4241;48.452;9.216;2023-09-18T12:20:48;19.20;99.90
8408;DHT22;4241;48.452;9.216;2023-09-18T12:23:15;19.20;99.90
8408;DHT22;4241;48.452;9.216;2023-09-18T12:25:47;19.20;99.90
8408;DHT22;4241;48.452;9.216;2023-09-18T12:30:42;19.60;99.90
8408;DHT22;4241;48.452;9.216;2023-09-18T12:33:09;19.60;99.90
8408;DHT22;4241;48.452;9.216;2023-09-18T12:35:37;19.80;99.90
8408;DHT22;4241;48.452;9.216;2023-09-18T12:38:15;19.90;99.90
8408;DHT22;4241;48.452;9.216;2023-09-18T12:40:45;19.90;99.90
8408;DHT22;4241;48.452;9.216;2023-09-18T12:43:13;20.00;99.90
8408;DHT22;4241;48.452;9.216;2023-09-18T12:45:41;20.10;99.90
8408;DHT22;4241;48.452;9.216;2023-09-18T12:48:09;20.10;99.90
8408;DHT22;4241;48.452;9.216;2023-09-18T12:53:09;20.30;99.90
8408;DHT22;4241;48.452;9.216;2023-09-18T12:55:38;20.30;99.90
8408;DHT22;4241;48.452;9.216;2023-09-18T12:58:06;20.40;99.90
8408;DHT22;4241;48.452;9.216;2023-09-18T13:00:35;20.50;99.90
8408;DHT22;4241;48.452;9.216;2023-09-18T13:03:02;20.40;99.90
8408;DHT22;4241;48.452;9.216;2023-09-18T13:05:30;20.50;99.90
8408;DHT22;4241;48.452;9.216;2023-09-18T13:08:02;20.50;99.90
8408;DHT22;4241;48.452;9.216;2023-09-18T13:10:29;20.60;99.90
8408;DHT22;4241;48.452;9.216;2023-09-18T13:12:57;20.50;99.90
8408;DHT22;4241;48.452;9.216;2023-09-18T13:15:26;20.50;99.90
8408;DHT22;4241;48.452;9.216;2023-09-18T13:17:54;20.60;99.90
8408;DHT22;4241;48.452;9.216;2023-09-18T13:20:22;20.70;99.90
8408;DHT22;4241;48.452;9.216;2023-09-18T13:22:51;20.80;99.90
8408;DHT22;4241;48.452;9.216;2023-09-18T13:25:22;20.80;99.90
8408;DHT22;4241;48.452;9.216;2023-09-18T13:27:49;20.80;99.90
8408;DHT22;4241;48.452;9.216;2023-09-18T13:30:18;20.80;99.90
8408;DHT22;4241;48.452;9.216;2023-09-18T13:32:48;20.80;99.90
8408;DHT22;4241;48.452;9.216;2023-09-18T13:35:15;20.80;99.90
8408;DHT22;4241;48.452;9.216;2023-09-18T13:37:43;20.80;99.90
8408;DHT22;4241;48.452;9.216;2023-09-18T13:40:10;20.90;99.90
8408;DHT22;4241;48.452;9.216;2023-09-18T13:42:38;21.00;99.90
8408;DHT22;4241;48.452;9.216;2023-09-18T13:45:06;21.00;99.90
8408;DHT22;4241;48.452;9.216;2023-09-18T13:47:35;21.10;99.90
8408;DHT22;4241;48.452;9.216;2023-09-18T13:50:03;21.10;99.90
8408;DHT22;4241;48.452;9.216;2023-09-18T13:52:31;21.00;99.90
8408;DHT22;4241;48.452;9.216;2023-09-18T13:54:58;21.00;99.90
8408;DHT22;4241;48.452;9.216;2023-09-18T13:57:25;21.10;99.90
8408;DHT22;4241;48.452;9.216;2023-09-18T13:59:52;21.20;99.90
8408;DHT22;4241;48.452;9.216;2023-09-18T14:02:19;20.90;99.90
8408;DHT22;4241;48.452;9.216;2023-09-18T14:04:54;21.00;99.90
8408;DHT22;4241;48.452;9.216;2023-09-18T14:07:21;21.00;99.90
8408;DHT22;4241;48.452;9.216;2023-09-18T14:09:48;21.00;99.90
8408;DHT22;4241;48.452;9.216;2023-09-18T14:12:15;21.00;99.90
8408;DHT22;4241;48.452;9.216;2023-09-18T14:14:42;21.00;99.90
8408;DHT22;4241;48.452;9.216;2023-09-18T14:17:09;21.00;99.90
8408;DHT22;4241;48.452;9.216;2023-09-18T14:19:36;21.00;99.90
8408;DHT22;4241;48.452;9.216;2023-09-18T14:22:05;20.90;99.90
8408;DHT22;4241;48.452;9.216;2023-09-18T14:24:33;20.90;99.90
8408;DHT22;4241;48.452;9.216;2023-09-18T14:27:00;20.90;99.90
8408;DHT22;4241;48.452;9.216;2023-09-18T14:29:28;20.80;99.90
8408;DHT22;4241;48.452;9.216;2023-09-18T14:31:56;20.80;99.90
8408;DHT22;4241;48.452;9.216;2023-09-18T14:34:22;20.80;99.90
8408;DHT22;4241;48.452;9.216;2023-09-18T14:36:49;20.80;99.90
8408;DHT22;4241;48.452;9.216;2023-09-18T14:39:17;20.80;99.90
8408;DHT22;4241;48.452;9.216;2023-09-18T14:41:44;20.80;99.90
8408;DHT22;4241;48.452;9.216;2023-09-18T14:44:13;20.80;99.90
8408;DHT22;4241;48.452;9.216;2023-09-18T14:46:40;20.90;99.90
8408;DHT22;4241;48.452;9.216;2023-09-18T14:49:08;20.80;99.90
8408;DHT22;4241;48.452;9.216;2023-09-18T14:51:35;20.90;99.90
8408;DHT22;4241;48.452;9.216;2023-09-18T14:54:03;20.90;99.90
8408;DHT22;4241;48.452;9.216;2023-09-18T14:56:31;20.80;99.90
8408;DHT22;4241;48.452;9.216;2023-09-18T14:58:58;21.00;99.90
8408;DHT22;4241;48.452;9.216;2023-09-18T15:01:25;20.80;99.90
8408;DHT22;4241;48.452;9.216;2023-09-18T15:03:52;20.90;99.90
8408;DHT22;4241;48.452;9.216;2023-09-18T15:08:47;20.80;99.90
8408;DHT22;4241;48.452;9.216;2023-09-18T15:11:14;20.90;99.90
8408;DHT22;4241;48.452;9.216;2023-09-18T15:13:44;20.80;99.90
8408;DHT22;4241;48.452;9.216;2023-09-18T15:16:11;20.90;99.90
8408;DHT22;4241;48.452;9.216;2023-09-18T15:18:38;20.90;99.90
8408;DHT22;4241;48.452;9.216;2023-09-18T15:21:05;21.00;99.90
8408;DHT22;4241;48.452;9.216;2023-09-18T15:23:32;21.00;99.90
8408;DHT22;4241;48.452;9.216;2023-09-18T15:25:59;21.10;99.90
8408;DHT22;4241;48.452;9.216;2023-09-18T15:28:26;20.90;99.90
8408;DHT22;4241;48.452;9.216;2023-09-18T15:30:55;21.20;99.90
8408;DHT22;4241;48.452;9.216;2023-09-18T15:33:22;21.20;99.90
8408;DHT22;4241;48.452;9.216;2023-09-18T15:35:51;21.20;99.90
8408;DHT22;4241;48.452;9.216;2023-09-18T15:38:18;21.20;99.90
8408;DHT22;4241;48.452;9.216;2023-09-18T15:40:46;21.10;99.90
8408;DHT22;4241;48.452;9.216;2023-09-18T15:43:13;21.10;99.90
8408;DHT22;4241;48.452;9.216;2023-09-18T15:45:40;21.10;99.90
8408;DHT22;4241;48.452;9.216;2023-09-18T15:48:08;20.90;99.90
8408;DHT22;4241;48.452;9.216;2023-09-18T15:50:35;20.90;99.90
8408;DHT22;4241;48.452;9.216;2023-09-18T15:53:02;20.90;99.90
8408;DHT22;4241;48.452;9.216;2023-09-18T15:55:29;20.80;99.90
8408;DHT22;4241;48.452;9.216;2023-09-18T15:57:56;20.80;99.90
8408;DHT22;4241;48.452;9.216;2023-09-18T16:00:22;20.80;99.90
8408;DHT22;4241;48.452;9.216;2023-09-18T16:02:49;20.70;99.90
8408;DHT22;4241;48.452;9.216;2023-09-18T16:05:18;20.80;99.90
8408;DHT22;4241;48.452;9.216;2023-09-18T16:07:51;20.70;99.90
8408;DHT22;4241;48.452;9.216;2023-09-18T16:10:22;20.60;99.90
8408;DHT22;4241;48.452;9.216;2023-09-18T16:12:49;20.50;99.90
8408;DHT22;4241;48.452;9.216;2023-09-18T16:15:15;20.50;99.90
8408;DHT22;4241;48.452;9.216;2023-09-18T16:17:42;20.60;99.90
8408;DHT22;4241;48.452;9.216;2023-09-18T16:20:09;20.60;99.90
8408;DHT22;4241;48.452;9.216;2023-09-18T16:22:37;20.50;99.90